sensor_id;sensor_type;location;lat;lon;timestamp;temperature;humidity
13245;DHT22;6689;53.400;12.486;2024-03-02T00:01:41;7.40;1.00
13245;DHT22;6689;53.400;12.486;2024-03-02T00:04:09;7.30;1.00
13245;DHT22;6689;53.400;12.486;2024-03-02T00:06:36;7.30;1.00
13245;DHT22;6689;53.400;12.486;2024-03-02T00:09:04;7.30;1.00
13245;DHT22;6689;53.400;12.486;2024-03-02T00:11:34;7.30;1.00
13245;DHT22;6689;53.400;12.486;2024-03-02T00:14:03;7.20;1.00
13245;DHT22;6689;53.400;12.486;2024-03-02T00:16:32;7.30;1.00
13245;DHT22;6689;53.400;12.486;2024-03-02T00:19:03;7.30;1.00
13245;DHT22;6689;53.400;12.486;2024-03-02T00:21:31;7.30;1.00
13245;DHT22;6689;53.400;12.486;2024-03-02T00:23:59;7.30;1.00
13245;DHT22;6689;53.400;12.486;2024-03-02T00:26:29;7.30;1.00
13245;DHT22;6689;53.400;12.486;2024-03-02T00:28:56;7.30;1.00
13245;DHT22;6689;53.400;12.486;2024-03-02T00:31:24;7.30;1.00
13245;DHT22;6689;53.400;12.486;2024-03-02T00:33:51;7.30;13.30
13245;DHT22;6689;53.400;12.486;2024-03-02T00:36:25;7.30;1.00
13245;DHT22;6689;53.400;12.486;2024-03-02T00:38:54;7.20;1.00
13245;DHT22;6689;53.400;12.486;2024-03-02T00:41:24;7.20;1.00
13245;DHT22;6689;53.400;12.486;2024-03-02T00:43:57;7.20;1.00
13245;DHT22;6689;53.400;12.486;2024-03-02T00:46:26;7.20;1.00
13245;DHT22;6689;53.400;12.486;2024-03-02T00:48:56;7.20;1.00
13245;DHT22;6689;53.400;12.486;2024-03-02T00:51:25;7.20;1.00
13245;DHT22;6689;53.400;12.486;2024-03-02T00:53:54;7.20;1.00
13245;DHT22;6689;53.400;12.486;2024-03-02T00:56:22;7.20;1.00
13245;DHT22;6689;53.400;12.486;2024-03-02T00:58:50;7.20;1.00
13245;DHT22;6689;53.400;12.486;2024-03-02T01:01:18;7.20;1.00
13245;DHT22;6689;53.400;12.486;2024-03-02T01:03:47;7.20;1.00
13245;DHT22;6689;53.400;12.486;2024-03-02T01:06:14;7.20;1.00
13245;DHT22;6689;53.400;12.486;2024-03-02T01:08:43;7.20;1.00
13245;DHT22;6689;53.400;12.486;2024-03-02T01:11:12;7.20;1.00
13245;DHT22;6689;53.400;12.486;2024-03-02T01:13:39;7.20;1.00
13245;DHT22;6689;53.400;12.486;2024-03-02T01:16:07;7.20;2.10
13245;DHT22;6689;53.400;12.486;2024-03-02T01:18:34;7.20;6.10
13245;DHT22;6689;53.400;12.486;2024-03-02T01:21:02;7.20;30.10
13245;DHT22;6689;53.400;12.486;2024-03-02T01:23:30;7.20;47.20
13245;DHT22;6689;53.400;12.486;2024-03-02T01:25:59;7.20;51.50
13245;DHT22;6689;53.400;12.486;2024-03-02T01:28:28;7.20;54.10
13245;DHT22;6689;53.400;12.486;2024-03-02T01:30:57;7.30;57.70
13245;DHT22;6689;53.400;12.486;2024-03-02T01:33:25;7.30;65.50
13245;DHT22;6689;53.400;12.486;2024-03-02T01:35:52;7.30;65.80
13245;DHT22;6689;53.400;12.486;2024-03-02T01:38:19;7.30;89.50
13245;DHT22;6689;53.400;12.486;2024-03-02T01:40:47;7.30;99.90
13245;DHT22;6689;53.400;12.486;2024-03-02T01:43:16;7.30;99.90
13245;DHT22;6689;53.400;12.486;2024-03-02T01:45:44;7.30;99.90
13245;DHT22;6689;53.400;12.486;2024-03-02T01:48:11;7.40;99.90
13245;DHT22;6689;53.400;12.486;2024-03-02T01:50:39;7.40;99.90
13245;DHT22;6689;53.400;12.486;2024-03-02T01:53:08;7.40;99.90
13245;DHT22;6689;53.400;12.486;2024-03-02T01:55:36;7.40;99.90
13245;DHT22;6689;53.400;12.486;2024-03-02T01:58:04;7.40;99.90
13245;DHT22;6689;53.400;12.486;2024-03-02T02:00:32;7.40;99.90
13245;DHT22;6689;53.400;12.486;2024-03-02T02:03:00;7.40;99.90
13245;DHT22;6689;53.400;12.486;2024-03-02T02:05:27;7.40;99.90
13245;DHT22;6689;53.400;12.486;2024-03-02T02:07:55;7.40;99.90
13245;DHT22;6689;53.400;12.486;2024-03-02T02:10:25;7.40;99.90
13245;DHT22;6689;53.400;12.486;2024-03-02T02:12:53;7.40;99.90
13245;DHT22;6689;53.400;12.486;2024-03-02T02:15:25;7.40;99.90
13245;DHT22;6689;53.400;12.486;2024-03-02T02:17:54;7.40;99.90
13245;DHT22;6689;53.400;12.486;2024-03-02T02:20:21;7.40;99.90
13245;DHT22;6689;53.400;12.486;2024-03-02T02:23:04;7.50;99.90
13245;DHT22;6689;53.400;12.486;2024-03-02T02:25:33;7.50;99.90
13245;DHT22;6689;53.400;12.486;2024-03-02T02:28:01;7.50;99.90
13245;DHT22;6689;53.400;12.486;2024-03-02T02:30:30;7.50;99.90
13245;DHT22;6689;53.400;12.486;2024-03-02T02:32:58;7.50;99.90
13245;DHT22;6689;53.400;12.486;2024-03-02T02:35:25;7.50;99.90
13245;DHT22;6689;53.400;12.486;2024-03-02T02:37:54;7.50;99.90
13245;DHT22;6689;53.400;12.486;2024-03-02T02:40:23;7.50;99.90
13245;DHT22;6689;53.400;12.486;2024-03-02T02:42:51;7.50;99.90
13245;DHT22;6689;53.400;12.486;2024-03-02T02:45:18;7.50;99.90
13245;DHT22;6689;53.400;12.486;2024-03-02T02:47:44;7.50;99.90
13245;DHT22;6689;53.400;12.486;2024-03-02T02:50:12;7.50;99.90
13245;DHT22;6689;53.400;12.486;2024-03-02T02:52:41;7.50;99.90
13245;DHT22;6689;53.400;12.486;2024-03-02T02:55:09;7.50;99.90
13245;DHT22;6689;53.400;12.486;2024-03-02T02:57:39;7.50;99.90
13245;DHT22;6689;53.400;12.486;2024-03-02T03:00:10;7.50;99.90
13245;DHT22;6689;53.400;12.486;2024-03-02T03:02:39;7.50;99.90
13245;DHT22;6689;53.400;12.486;2024-03-02T03:05:08;7.50;99.90
13245;DHT22;6689;53.400;12.486;2024-03-02T03:07:36;7.50;99.90
13245;DHT22;6689;53.400;12.486;2024-03-02T03:10:04;7.50;99.90
13245;DHT22;6689;53.400;12.486;2024-03-02T03:12:32;7.50;99.90
13245;DHT22;6689;53.400;12.486;2024-03-02T03:15:01;7.50;99.90
13245;DHT22;6689;53.400;12.486;2024-03-02T03:17:31;7.50;99.90
13245;DHT22;6689;53.400;12.486;2024-03-02T03:19:59;7.60;99.90
13245;DHT22;6689;53.400;12.486;2024-03-02T03:22:26;7.60;99.90
13245;DHT22;6689;53.400;12.486;2024-03-02T03:24:54;7.60;99.90
13245;DHT22;6689;53.400;12.486;2024-03-02T03:27:21;7.60;99.90
13245;DHT22;6689;53.400;12.486;2024-03-02T03:29:48;7.60;99.90
13245;DHT22;6689;53.400;12.486;2024-03-02T03:32:18;7.60;99.90
13245;DHT22;6689;53.400;12.486;2024-03-02T03:34:45;7.60;99.90
13245;DHT22;6689;53.400;12.486;2024-03-02T03:37:15;7.60;99.90
13245;DHT22;6689;53.400;12.486;2024-03-02T03:39:43;7.60;99.90
13245;DHT22;6689;53.400;12.486;2024-03-02T03:42:11;7.60;99.90
13245;DHT22;6689;53.400;12.486;2024-03-02T03:44:39;7.60;99.90
13245;DHT22;6689;53.400;12.486;2024-03-02T03:47:07;7.60;99.90
13245;DHT22;6689;53.400;12.486;2024-03-02T03:49:36;7.60;99.90
13245;DHT22;6689;53.400;12.486;2024-03-02T03:52:04;7.60;99.90
13245;DHT22;6689;53.400;12.486;2024-03-02T03:54:32;7.60;99.90
13245;DHT22;6689;53.400;12.486;2024-03-02T03:56:59;7.60;99.90
13245;DHT22;6689;53.400;12.486;2024-03-02T03:59:27;7.60;99.90
13245;DHT22;6689;53.400;12.486;2024-03-02T04:01:54;7.60;99.90
13245;DHT22;6689;53.400;12.486;2024-03-02T04:04:22;7.50;99.90
13245;DHT22;6689;53.400;12.486;2024-03-02T04:06:50;7.60;99.90
13245;DHT22;6689;53.400;12.486;2024-03-02T04:09:17;7.60;99.90
13245;DHT22;6689;53.400;12.486;2024-03-02T04:11:44;7.60;99.90
13245;DHT22;6689;53.400;12.486;2024-03-02T04:14:12;7.60;99.90
13245;DHT22;6689;53.400;12.486;2024-03-02T04:16:39;7.60;99.90
13245;DHT22;6689;53.400;12.486;2024-03-02T04:19:06;7.60;99.90
13245;DHT22;6689;53.400;12.486;2024-03-02T04:21:34;7.70;99.90
13245;DHT22;6689;53.400;12.486;2024-03-02T04:24:03;7.70;99.90
13245;DHT22;6689;53.400;12.486;2024-03-02T04:26:30;7.70;99.90
13245;DHT22;6689;53.400;12.486;2024-03-02T04:28:59;7.70;99.90
13245;DHT22;6689;53.400;12.486;2024-03-02T04:31:27;7.70;99.90
13245;DHT22;6689;53.400;12.486;2024-03-02T04:33:54;7.70;99.90
13245;DHT22;6689;53.400;12.486;2024-03-02T04:36:21;7.70;99.90
13245;DHT22;6689;53.400;12.486;2024-03-02T04:38:49;7.70;99.90
13245;DHT22;6689;53.400;12.486;2024-03-02T04:41:18;7.70;99.90
13245;DHT22;6689;53.400;12.486;2024-03-02T04:43:45;7.70;99.90
13245;DHT22;6689;53.400;12.486;2024-03-02T04:46:12;7.70;99.90
13245;DHT22;6689;53.400;12.486;2024-03-02T04:48:39;7.70;99.90
13245;DHT22;6689;53.400;12.486;2024-03-02T04:51:08;7.70;99.90
13245;DHT22;6689;53.400;12.486;2024-03-02T04:53:36;7.70;99.90
13245;DHT22;6689;53.400;12.486;2024-03-02T04:56:04;7.70;99.90
13245;DHT22;6689;53.400;12.486;2024-03-02T04:59:06;7.70;99.90
13245;DHT22;6689;53.400;12.486;2024-03-02T05:01:35;7.70;99.90
13245;DHT22;6689;53.400;12.486;2024-03-02T05:04:02;7.70;99.90
13245;DHT22;6689;53.400;12.486;2024-03-02T05:06:29;7.70;99.90
13245;DHT22;6689;53.400;12.486;2024-03-02T05:08:57;7.90;99.90
13245;DHT22;6689;53.400;12.486;2024-03-02T05:11:24;7.80;99.90
13245;DHT22;6689;53.400;12.486;2024-03-02T05:14:10;7.80;99.90
13245;DHT22;6689;53.400;12.486;2024-03-02T05:16:39;7.80;99.90
13245;DHT22;6689;53.400;12.486;2024-03-02T05:19:07;7.80;99.90
13245;DHT22;6689;53.400;12.486;2024-03-02T05:21:34;7.90;99.90
13245;DHT22;6689;53.400;12.486;2024-03-02T05:24:01;7.80;99.90
13245;DHT22;6689;53.400;12.486;2024-03-02T05:26:29;7.80;99.90
13245;DHT22;6689;53.400;12.486;2024-03-02T05:28:56;7.90;99.90
13245;DHT22;6689;53.400;12.486;2024-03-02T05:31:25;7.90;99.90
13245;DHT22;6689;53.400;12.486;2024-03-02T05:33:53;7.80;99.90
13245;DHT22;6689;53.400;12.486;2024-03-02T05:36:21;7.90;99.90
13245;DHT22;6689;53.400;12.486;2024-03-02T05:38:49;7.90;99.90
13245;DHT22;6689;53.400;12.486;2024-03-02T05:41:16;7.90;99.90
13245;DHT22;6689;53.400;12.486;2024-03-02T05:43:43;7.90;99.90
13245;DHT22;6689;53.400;12.486;2024-03-02T05:46:10;7.90;99.90
13245;DHT22;6689;53.400;12.486;2024-03-02T05:48:39;7.90;99.90
13245;DHT22;6689;53.400;12.486;2024-03-02T05:51:07;8.00;99.90
13245;DHT22;6689;53.400;12.486;2024-03-02T05:53:34;7.90;99.90
13245;DHT22;6689;53.400;12.486;2024-03-02T05:56:04;7.80;99.90
13245;DHT22;6689;53.400;12.486;2024-03-02T05:58:31;7.80;99.90
13245;DHT22;6689;53.400;12.486;2024-03-02T06:01:13;7.90;99.90
13245;DHT22;6689;53.400;12.486;2024-03-02T06:03:41;7.90;99.90
13245;DHT22;6689;53.400;12.486;2024-03-02T06:06:10;7.90;99.90
13245;DHT22;6689;53.400;12.486;2024-03-02T06:08:37;7.90;99.90
13245;DHT22;6689;53.400;12.486;2024-03-02T06:11:06;7.90;99.90
13245;DHT22;6689;53.400;12.486;2024-03-02T06:13:33;8.00;99.90
13245;DHT22;6689;53.400;12.486;2024-03-02T06:16:01;8.00;99.90
13245;DHT22;6689;53.400;12.486;2024-03-02T06:18:32;8.00;99.90
13245;DHT22;6689;53.400;12.486;2024-03-02T06:21:02;8.00;99.90
13245;DHT22;6689;53.400;12.486;2024-03-02T06:23:29;8.00;99.90
13245;DHT22;6689;53.400;12.486;2024-03-02T06:25:56;8.00;99.90
13245;DHT22;6689;53.400;12.486;2024-03-02T06:28:24;8.00;99.90
13245;DHT22;6689;53.400;12.486;2024-03-02T06:30:51;8.00;99.90
13245;DHT22;6689;53.400;12.486;2024-03-02T06:33:18;8.00;99.90
13245;DHT22;6689;53.400;12.486;2024-03-02T06:35:45;8.10;99.90
13245;DHT22;6689;53.400;12.486;2024-03-02T06:38:14;8.30;99.90
13245;DHT22;6689;53.400;12.486;2024-03-02T06:40:45;8.10;99.90
13245;DHT22;6689;53.400;12.486;2024-03-02T06:43:12;8.10;99.90
13245;DHT22;6689;53.400;12.486;2024-03-02T06:45:39;8.10;99.90
13245;DHT22;6689;53.400;12.486;2024-03-02T06:48:07;8.10;99.90
13245;DHT22;6689;53.400;12.486;2024-03-02T06:50:36;8.10;99.90
13245;DHT22;6689;53.400;12.486;2024-03-02T06:53:03;8.10;99.90
13245;DHT22;6689;53.400;12.486;2024-03-02T06:55:32;8.20;99.90
13245;DHT22;6689;53.400;12.486;2024-03-02T06:57:59;8.20;99.90
13245;DHT22;6689;53.400;12.486;2024-03-02T07:00:26;8.20;99.90
13245;DHT22;6689;53.400;12.486;2024-03-02T07:02:53;8.20;99.90
13245;DHT22;6689;53.400;12.486;2024-03-02T07:05:20;8.20;99.90
13245;DHT22;6689;53.400;12.486;2024-03-02T07:07:48;8.20;99.90
13245;DHT22;6689;53.400;12.486;2024-03-02T07:10:15;8.30;99.90
13245;DHT22;6689;53.400;12.486;2024-03-02T07:12:44;8.30;99.90
13245;DHT22;6689;53.400;12.486;2024-03-02T07:15:12;8.30;99.90
13245;DHT22;6689;53.400;12.486;2024-03-02T07:18:03;8.30;99.90
13245;DHT22;6689;53.400;12.486;2024-03-02T07:20:30;8.30;99.90
13245;DHT22;6689;53.400;12.486;2024-03-02T07:22:58;8.30;99.90
13245;DHT22;6689;53.400;12.486;2024-03-02T07:25:25;8.30;99.90
13245;DHT22;6689;53.400;12.486;2024-03-02T07:27:54;8.30;99.90
13245;DHT22;6689;53.400;12.486;2024-03-02T07:30:21;8.30;99.90
13245;DHT22;6689;53.400;12.486;2024-03-02T07:32:50;8.30;99.90
13245;DHT22;6689;53.400;12.486;2024-03-02T07:35:17;8.30;99.90
13245;DHT22;6689;53.400;12.486;2024-03-02T07:37:48;8.30;99.90
13245;DHT22;6689;53.400;12.486;2024-03-02T07:40:15;8.30;99.90
13245;DHT22;6689;53.400;12.486;2024-03-02T07:42:45;8.30;99.90
13245;DHT22;6689;53.400;12.486;2024-03-02T07:45:14;8.30;99.90
13245;DHT22;6689;53.400;12.486;2024-03-02T07:47:42;8.30;99.90
13245;DHT22;6689;53.400;12.486;2024-03-02T07:50:10;8.30;99.90
13245;DHT22;6689;53.400;12.486;2024-03-02T07:52:37;8.40;99.90
13245;DHT22;6689;53.400;12.486;2024-03-02T07:55:05;8.40;99.90
13245;DHT22;6689;53.400;12.486;2024-03-02T07:57:32;8.40;99.90
13245;DHT22;6689;53.400;12.486;2024-03-02T08:00:00;8.50;99.90
13245;DHT22;6689;53.400;12.486;2024-03-02T08:02:29;8.50;99.90
13245;DHT22;6689;53.400;12.486;2024-03-02T08:04:58;8.50;99.90
13245;DHT22;6689;53.400;12.486;2024-03-02T08:07:25;8.50;99.90
13245;DHT22;6689;53.400;12.486;2024-03-02T08:09:52;8.60;1.00
13245;DHT22;6689;53.400;12.486;2024-03-02T08:12:20;8.60;1.00
13245;DHT22;6689;53.400;12.486;2024-03-02T08:14:49;8.60;1.00
13245;DHT22;6689;53.400;12.486;2024-03-02T08:17:16;8.60;1.00
13245;DHT22;6689;53.400;12.486;2024-03-02T08:19:45;8.60;1.00
13245;DHT22;6689;53.400;12.486;2024-03-02T08:22:14;8.60;1.00
13245;DHT22;6689;53.400;12.486;2024-03-02T08:24:41;8.60;1.00
13245;DHT22;6689;53.400;12.486;2024-03-02T08:27:09;8.60;1.00
13245;DHT22;6689;53.400;12.486;2024-03-02T08:29:36;8.60;1.00
13245;DHT22;6689;53.400;12.486;2024-03-02T08:32:04;8.70;1.00
13245;DHT22;6689;53.400;12.486;2024-03-02T08:34:32;8.70;1.00
13245;DHT22;6689;53.400;12.486;2024-03-02T08:37:02;8.70;1.00
13245;DHT22;6689;53.400;12.486;2024-03-02T08:39:29;8.70;1.00
13245;DHT22;6689;53.400;12.486;2024-03-02T08:41:57;8.70;1.00
13245;DHT22;6689;53.400;12.486;2024-03-02T08:44:24;8.80;1.00
13245;DHT22;6689;53.400;12.486;2024-03-02T08:46:52;8.80;1.00
13245;DHT22;6689;53.400;12.486;2024-03-02T08:49:19;8.80;1.00
13245;DHT22;6689;53.400;12.486;2024-03-02T08:51:47;8.90;1.00
13245;DHT22;6689;53.400;12.486;2024-03-02T08:54:21;8.80;1.00
13245;DHT22;6689;53.400;12.486;2024-03-02T08:56:53;8.90;1.00
13245;DHT22;6689;53.400;12.486;2024-03-02T08:59:20;8.90;1.00
13245;DHT22;6689;53.400;12.486;2024-03-02T09:01:48;8.90;1.00
13245;DHT22;6689;53.400;12.486;2024-03-02T09:04:15;8.90;1.00
13245;DHT22;6689;53.400;12.486;2024-03-02T09:06:43;8.90;1.00
13245;DHT22;6689;53.400;12.486;2024-03-02T09:09:10;9.00;1.00
13245;DHT22;6689;53.400;12.486;2024-03-02T09:11:40;8.90;1.00
13245;DHT22;6689;53.400;12.486;2024-03-02T09:14:07;9.00;1.00
13245;DHT22;6689;53.400;12.486;2024-03-02T09:16:35;9.00;1.00
13245;DHT22;6689;53.400;12.486;2024-03-02T09:19:02;9.00;1.00
13245;DHT22;6689;53.400;12.486;2024-03-02T09:21:31;9.00;1.00
13245;DHT22;6689;53.400;12.486;2024-03-02T09:23:58;9.00;1.00
13245;DHT22;6689;53.400;12.486;2024-03-02T09:26:28;9.00;1.00
13245;DHT22;6689;53.400;12.486;2024-03-02T09:28:58;9.00;1.00
13245;DHT22;6689;53.400;12.486;2024-03-02T09:31:26;9.10;1.00
13245;DHT22;6689;53.400;12.486;2024-03-02T09:33:52;9.10;1.00
13245;DHT22;6689;53.400;12.486;2024-03-02T09:36:21;9.10;1.00
13245;DHT22;6689;53.400;12.486;2024-03-02T09:38:49;9.10;1.00
13245;DHT22;6689;53.400;12.486;2024-03-02T09:41:16;9.10;4.70
13245;DHT22;6689;53.400;12.486;2024-03-02T09:43:44;9.10;24.70
13245;DHT22;6689;53.400;12.486;2024-03-02T09:46:13;9.10;99.90
13245;DHT22;6689;53.400;12.486;2024-03-02T09:48:40;9.20;96.10
13245;DHT22;6689;53.400;12.486;2024-03-02T09:51:08;9.20;61.30
13245;DHT22;6689;53.400;12.486;2024-03-02T09:53:36;9.20;49.10
13245;DHT22;6689;53.400;12.486;2024-03-02T09:56:04;9.20;61.30
13245;DHT22;6689;53.400;12.486;2024-03-02T09:58:31;9.40;74.40
13245;DHT22;6689;53.400;12.486;2024-03-02T10:00:59;9.40;50.20
13245;DHT22;6689;53.400;12.486;2024-03-02T10:03:29;9.50;35.60
13245;DHT22;6689;53.400;12.486;2024-03-02T10:06:19;9.50;17.80
13245;DHT22;6689;53.400;12.486;2024-03-02T10:08:46;9.60;6.80
13245;DHT22;6689;53.400;12.486;2024-03-02T10:11:27;9.60;1.00
13245;DHT22;6689;53.400;12.486;2024-03-02T10:14:06;9.60;1.00
13245;DHT22;6689;53.400;12.486;2024-03-02T10:16:41;9.70;1.00
13245;DHT22;6689;53.400;12.486;2024-03-02T10:19:20;9.70;1.00
13245;DHT22;6689;53.400;12.486;2024-03-02T10:21:48;9.80;1.00
13245;DHT22;6689;53.400;12.486;2024-03-02T10:24:16;9.80;1.00
13245;DHT22;6689;53.400;12.486;2024-03-02T10:26:46;9.80;1.00
13245;DHT22;6689;53.400;12.486;2024-03-02T10:29:13;9.80;1.00
13245;DHT22;6689;53.400;12.486;2024-03-02T10:31:42;9.80;1.00
13245;DHT22;6689;53.400;12.486;2024-03-02T10:34:11;9.90;1.00
13245;DHT22;6689;53.400;12.486;2024-03-02T10:36:42;9.90;1.00
13245;DHT22;6689;53.400;12.486;2024-03-02T10:39:10;9.90;1.00
13245;DHT22;6689;53.400;12.486;2024-03-02T10:41:38;10.00;1.00
13245;DHT22;6689;53.400;12.486;2024-03-02T10:44:07;10.20;1.00
13245;DHT22;6689;53.400;12.486;2024-03-02T10:46:38;10.40;1.00
13245;DHT22;6689;53.400;12.486;2024-03-02T10:49:06;10.60;1.00
13245;DHT22;6689;53.400;12.486;2024-03-02T10:51:34;10.70;1.00
13245;DHT22;6689;53.400;12.486;2024-03-02T10:54:04;10.80;1.00
13245;DHT22;6689;53.400;12.486;2024-03-02T10:56:33;10.80;1.00
13245;DHT22;6689;53.400;12.486;2024-03-02T10:59:03;10.90;1.00
13245;DHT22;6689;53.400;12.486;2024-03-02T11:01:34;10.90;1.00
13245;DHT22;6689;53.400;12.486;2024-03-02T11:04:02;11.00;1.00
13245;DHT22;6689;53.400;12.486;2024-03-02T11:06:31;11.00;1.00
13245;DHT22;6689;53.400;12.486;2024-03-02T11:09:05;11.10;1.00
13245;DHT22;6689;53.400;12.486;2024-03-02T11:11:37;11.00;1.00
13245;DHT22;6689;53.400;12.486;2024-03-02T11:14:07;11.10;1.00
13245;DHT22;6689;53.400;12.486;2024-03-02T11:16:38;11.10;1.00
13245;DHT22;6689;53.400;12.486;2024-03-02T11:19:10;11.10;1.00
13245;DHT22;6689;53.400;12.486;2024-03-02T11:21:38;11.00;1.00
13245;DHT22;6689;53.400;12.486;2024-03-02T11:24:31;11.00;1.40
13245;DHT22;6689;53.400;12.486;2024-03-02T11:27:03;11.10;99.90
13245;DHT22;6689;53.400;12.486;2024-03-02T11:29:44;11.10;99.90
13245;DHT22;6689;53.400;12.486;2024-03-02T11:32:17;11.00;99.90
13245;DHT22;6689;53.400;12.486;2024-03-02T11:34:46;11.00;99.90
13245;DHT22;6689;53.400;12.486;2024-03-02T11:37:16;11.00;99.90
13245;DHT22;6689;53.400;12.486;2024-03-02T11:39:49;11.10;99.90
13245;DHT22;6689;53.400;12.486;2024-03-02T11:42:17;11.10;99.90
13245;DHT22;6689;53.400;12.486;2024-03-02T11:44:46;11.20;99.90
13245;DHT22;6689;53.400;12.486;2024-03-02T11:47:16;11.20;99.90
13245;DHT22;6689;53.400;12.486;2024-03-02T11:49:45;11.50;99.90
13245;DHT22;6689;53.400;12.486;2024-03-02T11:52:13;11.70;99.90
13245;DHT22;6689;53.400;12.486;2024-03-02T11:54:44;11.80;1.00
13245;DHT22;6689;53.400;12.486;2024-03-02T11:57:16;11.80;99.90
13245;DHT22;6689;53.400;12.486;2024-03-02T11:59:45;11.90;99.90
13245;DHT22;6689;53.400;12.486;2024-03-02T12:02:17;11.80;99.90
13245;DHT22;6689;53.400;12.486;2024-03-02T12:04:45;11.90;99.90
13245;DHT22;6689;53.400;12.486;2024-03-02T12:07:18;11.90;99.90
13245;DHT22;6689;53.400;12.486;2024-03-02T12:09:46;12.00;99.90
13245;DHT22;6689;53.400;12.486;2024-03-02T12:12:15;12.10;99.90
13245;DHT22;6689;53.400;12.486;2024-03-02T12:14:51;12.20;99.90
13245;DHT22;6689;53.400;12.486;2024-03-02T12:17:19;12.30;99.90
13245;DHT22;6689;53.400;12.486;2024-03-02T12:19:47;12.50;99.90
13245;DHT22;6689;53.400;12.486;2024-03-02T12:22:19;12.70;99.90
13245;DHT22;6689;53.400;12.486;2024-03-02T12:24:46;12.80;99.90
13245;DHT22;6689;53.400;12.486;2024-03-02T12:27:15;12.90;47.00
13245;DHT22;6689;53.400;12.486;2024-03-02T12:29:46;12.90;28.60
13245;DHT22;6689;53.400;12.486;2024-03-02T12:32:13;13.00;24.70
13245;DHT22;6689;53.400;12.486;2024-03-02T12:34:42;13.00;1.00
13245;DHT22;6689;53.400;12.486;2024-03-02T12:37:12;13.00;1.00
13245;DHT22;6689;53.400;12.486;2024-03-02T12:39:39;13.00;1.00
13245;DHT22;6689;53.400;12.486;2024-03-02T12:42:06;13.10;1.00
13245;DHT22;6689;53.400;12.486;2024-03-02T12:44:35;13.00;1.00
13245;DHT22;6689;53.400;12.486;2024-03-02T12:47:03;13.00;1.00
13245;DHT22;6689;53.400;12.486;2024-03-02T12:49:30;13.10;1.00
13245;DHT22;6689;53.400;12.486;2024-03-02T12:51:58;13.10;1.00
13245;DHT22;6689;53.400;12.486;2024-03-02T12:54:25;13.20;1.00
13245;DHT22;6689;53.400;12.486;2024-03-02T12:56:53;13.10;1.00
13245;DHT22;6689;53.400;12.486;2024-03-02T12:59:24;13.10;1.00
13245;DHT22;6689;53.400;12.486;2024-03-02T13:01:54;13.10;1.00
13245;DHT22;6689;53.400;12.486;2024-03-02T13:04:24;13.10;1.00
13245;DHT22;6689;53.400;12.486;2024-03-02T13:06:53;13.30;1.00
13245;DHT22;6689;53.400;12.486;2024-03-02T13:09:21;13.30;1.00
13245;DHT22;6689;53.400;12.486;2024-03-02T13:11:49;13.30;1.00
13245;DHT22;6689;53.400;12.486;2024-03-02T13:14:16;13.40;1.00
13245;DHT22;6689;53.400;12.486;2024-03-02T13:16:44;13.30;1.00
13245;DHT22;6689;53.400;12.486;2024-03-02T13:19:18;13.40;1.00
13245;DHT22;6689;53.400;12.486;2024-03-02T13:21:45;13.40;1.00
13245;DHT22;6689;53.400;12.486;2024-03-02T13:24:13;13.40;1.00
13245;DHT22;6689;53.400;12.486;2024-03-02T13:26:40;13.40;1.00
13245;DHT22;6689;53.400;12.486;2024-03-02T13:29:07;13.50;1.00
13245;DHT22;6689;53.400;12.486;2024-03-02T13:31:36;13.50;1.00
13245;DHT22;6689;53.400;12.486;2024-03-02T13:34:03;13.50;1.00
13245;DHT22;6689;53.400;12.486;2024-03-02T13:36:32;13.50;1.00
13245;DHT22;6689;53.400;12.486;2024-03-02T13:39:00;13.40;1.00
13245;DHT22;6689;53.400;12.486;2024-03-02T13:41:28;13.30;1.00
13245;DHT22;6689;53.400;12.486;2024-03-02T13:43:55;13.50;1.00
13245;DHT22;6689;53.400;12.486;2024-03-02T13:46:23;13.50;1.00
13245;DHT22;6689;53.400;12.486;2024-03-02T13:48:50;13.50;1.00
13245;DHT22;6689;53.400;12.486;2024-03-02T13:51:18;13.60;1.00
13245;DHT22;6689;53.400;12.486;2024-03-02T13:53:47;13.70;1.00
13245;DHT22;6689;53.400;12.486;2024-03-02T13:56:15;13.70;1.00
13245;DHT22;6689;53.400;12.486;2024-03-02T13:58:42;13.70;1.00
13245;DHT22;6689;53.400;12.486;2024-03-02T14:01:11;13.80;1.00
13245;DHT22;6689;53.400;12.486;2024-03-02T14:03:39;13.80;1.00
13245;DHT22;6689;53.400;12.486;2024-03-02T14:06:06;13.70;1.00
13245;DHT22;6689;53.400;12.486;2024-03-02T14:08:34;13.80;1.00
13245;DHT22;6689;53.400;12.486;2024-03-02T14:11:03;13.80;1.00
13245;DHT22;6689;53.400;12.486;2024-03-02T14:13:30;13.80;1.00
13245;DHT22;6689;53.400;12.486;2024-03-02T14:15:59;13.60;99.90
13245;DHT22;6689;53.400;12.486;2024-03-02T14:18:29;13.70;1.00
13245;DHT22;6689;53.400;12.486;2024-03-02T14:20:56;13.70;99.90
13245;DHT22;6689;53.400;12.486;2024-03-02T14:23:24;13.80;99.90
13245;DHT22;6689;53.400;12.486;2024-03-02T14:25:54;13.80;99.90
13245;DHT22;6689;53.400;12.486;2024-03-02T14:28:24;13.80;99.90
13245;DHT22;6689;53.400;12.486;2024-03-02T14:30:51;13.70;99.90
13245;DHT22;6689;53.400;12.486;2024-03-02T14:33:19;13.70;99.90
13245;DHT22;6689;53.400;12.486;2024-03-02T14:35:47;13.70;99.90
13245;DHT22;6689;53.400;12.486;2024-03-02T14:38:14;13.70;99.90
13245;DHT22;6689;53.400;12.486;2024-03-02T14:40:49;13.70;99.90
13245;DHT22;6689;53.400;12.486;2024-03-02T14:43:16;13.70;99.90
13245;DHT22;6689;53.400;12.486;2024-03-02T14:45:46;13.60;99.90
13245;DHT22;6689;53.400;12.486;2024-03-02T14:48:15;13.70;99.90
13245;DHT22;6689;53.400;12.486;2024-03-02T14:50:42;13.70;99.90
13245;DHT22;6689;53.400;12.486;2024-03-02T14:53:09;13.70;99.90
13245;DHT22;6689;53.400;12.486;2024-03-02T14:55:38;13.60;99.90
13245;DHT22;6689;53.400;12.486;2024-03-02T14:58:05;13.60;99.90
13245;DHT22;6689;53.400;12.486;2024-03-02T15:00:32;13.60;99.90
13245;DHT22;6689;53.400;12.486;2024-03-02T15:03:01;13.60;99.90
13245;DHT22;6689;53.400;12.486;2024-03-02T15:05:29;13.50;99.90
13245;DHT22;6689;53.400;12.486;2024-03-02T15:07:56;13.50;99.90
13245;DHT22;6689;53.400;12.486;2024-03-02T15:10:28;13.40;99.90
13245;DHT22;6689;53.400;12.486;2024-03-02T15:12:56;13.40;99.90
13245;DHT22;6689;53.400;12.486;2024-03-02T15:15:23;13.40;99.90
13245;DHT22;6689;53.400;12.486;2024-03-02T15:17:51;13.30;99.90
13245;DHT22;6689;53.400;12.486;2024-03-02T15:20:20;13.30;99.90
13245;DHT22;6689;53.400;12.486;2024-03-02T15:22:47;13.40;99.90
13245;DHT22;6689;53.400;12.486;2024-03-02T15:25:13;13.30;99.90
13245;DHT22;6689;53.400;12.486;2024-03-02T15:27:42;13.30;99.90
13245;DHT22;6689;53.400;12.486;2024-03-02T15:30:10;13.30;99.90
13245;DHT22;6689;53.400;12.486;2024-03-02T15:32:37;13.30;99.90
13245;DHT22;6689;53.400;12.486;2024-03-02T15:35:05;13.30;99.90
13245;DHT22;6689;53.400;12.486;2024-03-02T15:37:35;13.10;99.90
13245;DHT22;6689;53.400;12.486;2024-03-02T15:40:02;13.20;99.90
13245;DHT22;6689;53.400;12.486;2024-03-02T15:42:34;13.20;99.90
13245;DHT22;6689;53.400;12.486;2024-03-02T15:45:01;13.20;99.90
13245;DHT22;6689;53.400;12.486;2024-03-02T15:47:28;13.20;99.90
13245;DHT22;6689;53.400;12.486;2024-03-02T15:49:56;13.30;99.90
13245;DHT22;6689;53.400;12.486;2024-03-02T15:52:23;13.10;99.90
13245;DHT22;6689;53.400;12.486;2024-03-02T15:54:52;13.20;99.90
13245;DHT22;6689;53.400;12.486;2024-03-02T15:57:19;13.20;1.00